createdAt,value
2022-11-04T00:03:37.268Z,-1.78
2022-11-04T00:08:40.078Z,-1.84
2022-11-04T00:13:42.894Z,-1.51
2022-11-04T00:18:45.709Z,-1.72
2022-11-04T00:24:06.804Z,-1.70
2022-11-04T00:29:09.342Z,-1.79
2022-11-04T00:34:11.942Z,-2.05
2022-11-04T00:39:14.685Z,-1.80
2022-11-04T00:44:17.312Z,-1.84
2022-11-04T00:49:20.248Z,-1.91
2022-11-04T00:54:22.997Z,-2.11
2022-11-04T00:59:25.515Z,-2.21
2022-11-04T01:04:28.394Z,-2.30
2022-11-04T01:09:30.980Z,-2.29
2022-11-04T01:14:33.586Z,-2.27
2022-11-04T01:19:36.303Z,-2.23
2022-11-04T01:24:39.026Z,-2.17
2022-11-04T01:29:41.767Z,-2.22
2022-11-04T01:34:44.317Z,-2.17
2022-11-04T01:39:46.899Z,-2.27
2022-11-04T01:44:53.415Z,-2.76
2022-11-04T01:50:13.254Z,-2.66
2022-11-04T01:55:25.998Z,-3.44
2022-11-04T02:00:28.907Z,-3.04
2022-11-04T02:05:32.800Z,-2.82
2022-11-04T02:10:35.934Z,-2.80
2022-11-04T02:16:06.467Z,-2.56
2022-11-04T02:21:11.937Z,-2.94
2022-11-04T02:26:47.916Z,-2.92
2022-11-04T02:32:08.854Z,-2.83
2022-11-04T02:37:40.043Z,-2.75
2022-11-04T02:43:14.968Z,-2.46
2022-11-04T02:48:31.418Z,-2.45
2022-11-04T02:53:58.089Z,-2.38
2022-11-04T02:59:10.002Z,-2.42
2022-11-04T03:04:15.350Z,-2.26
2022-11-04T03:09:19.734Z,-2.19
2022-11-04T03:14:35.047Z,-2.28
2022-11-04T03:19:47.788Z,-2.31
2022-11-04T03:24:51.539Z,-2.48
2022-11-04T03:29:56.903Z,-2.39
2022-11-04T03:34:59.855Z,-2.39
2022-11-04T03:40:03.300Z,-2.48
2022-11-04T03:45:06.566Z,-2.65
2022-11-04T03:50:26.383Z,-2.44
2022-11-04T03:55:37.646Z,-2.42
2022-11-04T04:00:50.352Z,-2.55
2022-11-04T04:06:16.897Z,-2.61
2022-11-04T04:11:39.558Z,-2.31
2022-11-04T04:16:45.950Z,-2.17
2022-11-04T04:21:55.598Z,-2.03
2022-11-04T04:27:17.632Z,-1.87
2022-11-04T04:32:22.589Z,-1.80
2022-11-04T04:37:27.633Z,-1.76
2022-11-04T04:42:53.095Z,-1.56
2022-11-04T04:47:56.558Z,-1.52
2022-11-04T04:53:00.486Z,-1.17
2022-11-04T04:58:03.174Z,-1.21
2022-11-04T05:03:06.102Z,-1.41
2022-11-04T05:08:09.499Z,-1.51
2022-11-04T05:13:30.099Z,-1.27
2022-11-04T05:18:32.804Z,-1.34
2022-11-04T05:23:35.703Z,-1.25
2022-11-04T05:28:38.977Z,-1.01
2022-11-04T05:33:41.598Z,-1.02
2022-11-04T05:38:44.612Z,-1.06
2022-11-04T05:43:47.251Z,-0.91
2022-11-04T05:48:50.219Z,-0.94
2022-11-04T05:53:53.438Z,-1.02
2022-11-04T05:58:56.119Z,-1.17
2022-11-04T06:03:59.799Z,-1.24
2022-11-04T06:09:03.983Z,-1.35
2022-11-04T06:14:06.839Z,-1.26
2022-11-04T06:19:13.398Z,-1.30
2022-11-04T06:24:17.653Z,-1.31
2022-11-04T06:29:20.593Z,-1.20
2022-11-04T06:34:23.219Z,-1.20
2022-11-04T06:39:26.209Z,-1.36
2022-11-04T06:44:34.533Z,-1.26
2022-11-04T06:49:37.152Z,-1.24
2022-11-04T06:54:39.948Z,-1.19
2022-11-04T06:59:42.828Z,-1.23
2022-11-04T07:04:47.367Z,-1.09
2022-11-04T07:09:50.819Z,-1.29
2022-11-04T07:14:59.128Z,-1.15
2022-11-04T07:20:09.429Z,-1.22
2022-11-04T07:25:15.022Z,-1.31
2022-11-04T07:30:20.374Z,-1.15
2022-11-04T07:35:23.019Z,-1.18
2022-11-04T07:40:25.877Z,-1.07
2022-11-04T07:45:28.701Z,-1.19
2022-11-04T07:50:31.645Z,-0.97
2022-11-04T07:55:42.855Z,-0.85
2022-11-04T08:00:46.333Z,-0.78
2022-11-04T08:05:58.708Z,-0.79
2022-11-04T08:11:05.132Z,-0.65
2022-11-04T08:16:13.838Z,-0.43
2022-11-04T08:21:17.110Z,-0.43
2022-11-04T08:26:21.086Z,-0.43
2022-11-04T08:31:28.758Z,-0.53
2022-11-04T08:36:37.840Z,-0.52
2022-11-04T08:41:45.615Z,-0.58
2022-11-04T08:46:48.558Z,-0.53
2022-11-04T08:51:56.895Z,-0.52
2022-11-04T08:56:59.512Z,-0.56
2022-11-04T09:02:02.193Z,-0.79
2022-11-04T09:07:08.319Z,-0.49
2022-11-04T09:12:11.649Z,-0.40
2022-11-04T09:17:14.284Z,-0.38
2022-11-04T09:22:17.939Z,-0.42
2022-11-04T09:27:21.069Z,-0.42
2022-11-04T09:32:24.249Z,-0.44
2022-11-04T09:37:26.807Z,-0.47
2022-11-04T09:42:32.091Z,-0.39
2022-11-04T09:47:36.728Z,-0.38
2022-11-04T09:52:44.745Z,-0.31
2022-11-04T09:57:56.432Z,-0.47
2022-11-04T10:03:19.332Z,-0.30
2022-11-04T10:08:38.168Z,-0.31
2022-11-04T10:13:53.035Z,-0.31
2022-11-04T10:18:58.664Z,-0.11
2022-11-04T10:24:18.782Z,-0.06
2022-11-04T10:29:35.546Z,0.12
2022-11-04T10:34:55.223Z,-0.15
2022-11-04T10:40:17.532Z,0.10
2022-11-04T10:45:27.130Z,-0.28
2022-11-04T10:50:56.763Z,-0.12
2022-11-04T10:56:03.253Z,-0.22
2022-11-04T11:01:35.613Z,-0.42
2022-11-04T11:06:38.647Z,-0.49
2022-11-04T11:11:47.568Z,-0.36
2022-11-04T11:16:50.259Z,-0.37
2022-11-04T11:21:57.396Z,-0.28
2022-11-04T11:27:15.267Z,-0.22
2022-11-04T11:32:35.967Z,-0.25
2022-11-04T11:37:40.751Z,-0.30
2022-11-04T11:42:44.297Z,-0.42
2022-11-04T11:47:47.902Z,-0.40
2022-11-04T11:52:52.876Z,-0.36
2022-11-04T12:09:19.575Z,-0.39
2022-11-04T12:14:36.555Z,-0.42
2022-11-04T12:20:08.827Z,-0.48
2022-11-04T12:25:14.341Z,-0.46
2022-11-04T12:30:29.042Z,-0.33
2022-11-04T12:36:04.966Z,-0.23
2022-11-04T12:47:29.211Z,-0.12
2022-11-04T12:52:31.991Z,-0.23
2022-11-04T12:58:16.384Z,-0.21
2022-11-04T13:03:48.674Z,-0.34
2022-11-04T13:09:42.362Z,-0.15
2022-11-04T13:14:55.349Z,-0.52
2022-11-04T13:20:14.303Z,-0.21
2022-11-04T13:25:30.444Z,-0.27
2022-11-04T13:30:45.672Z,-0.20
2022-11-04T13:35:54.332Z,-0.36
2022-11-04T13:41:28.698Z,-0.41
2022-11-04T13:46:34.552Z,-0.40
2022-11-04T13:51:48.193Z,-0.36
2022-11-04T13:56:51.127Z,-0.34
2022-11-04T14:02:12.350Z,-0.33
2022-11-04T14:07:18.171Z,-0.26
2022-11-04T14:12:32.727Z,-0.29
2022-11-04T14:17:35.367Z,-0.24
2022-11-04T14:22:43.935Z,-0.04
2022-11-04T14:28:09.691Z,-0.07
2022-11-04T14:33:31.583Z,-0.01
2022-11-04T14:38:34.584Z,-0.02
2022-11-04T14:43:40.187Z,0.00
2022-11-04T14:48:52.013Z,0.20
2022-11-04T14:54:04.367Z,0.20
2022-11-04T14:59:08.364Z,0.16
2022-11-04T15:04:31.040Z,0.18
2022-11-04T15:09:39.738Z,0.27
2022-11-04T15:14:42.258Z,0.07
2022-11-04T15:19:50.505Z,0.19
2022-11-04T15:24:53.699Z,0.23
2022-11-04T15:30:01.207Z,-0.02
2022-11-04T15:35:05.923Z,0.12
2022-11-04T15:40:14.641Z,-0.35
2022-11-04T15:45:49.150Z,-0.27
2022-11-04T15:51:06.090Z,-0.17
2022-11-04T15:56:08.703Z,-0.15
2022-11-04T16:01:18.379Z,0.01
2022-11-04T16:06:43.001Z,-0.13
2022-11-04T16:12:15.315Z,-0.33
2022-11-04T16:17:18.946Z,-0.23
2022-11-04T16:22:40.951Z,-0.22
2022-11-04T16:27:46.294Z,-0.23
2022-11-04T16:32:56.856Z,-0.50
2022-11-04T16:38:01.471Z,-0.65
2022-11-04T16:43:04.146Z,-0.41
2022-11-04T16:48:06.908Z,-0.22
2022-11-04T16:53:10.182Z,-0.18
2022-11-04T16:58:19.411Z,-0.15
2022-11-04T17:03:22.107Z,-0.30
2022-11-04T17:08:26.180Z,-0.15
2022-11-04T17:13:32.114Z,-0.25
2022-11-04T17:18:38.973Z,-0.28
2022-11-04T17:23:41.891Z,-0.12
2022-11-04T17:28:44.874Z,-0.13
2022-11-04T17:33:47.689Z,0.03
2022-11-04T17:38:50.363Z,-0.11
2022-11-04T17:44:01.829Z,0.01
2022-11-04T17:49:10.793Z,-0.40
2022-11-04T17:54:14.209Z,0.05
2022-11-04T17:59:17.834Z,0.03
2022-11-04T18:04:22.575Z,-0.27
2022-11-04T18:09:25.351Z,-0.29
2022-11-04T18:14:30.555Z,-0.44
2022-11-04T18:19:33.378Z,-0.46
2022-11-04T18:24:36.105Z,-0.47
2022-11-04T18:29:39.195Z,-0.37
2022-11-04T18:34:41.963Z,-0.59
2022-11-04T18:39:45.101Z,-0.67
2022-11-04T18:44:47.823Z,-0.67
2022-11-04T18:49:50.460Z,-0.67
2022-11-04T18:54:53.285Z,-0.82
2022-11-04T18:59:56.394Z,-0.68
2022-11-04T19:04:59.315Z,-0.66
2022-11-04T19:10:02.053Z,-0.74
2022-11-04T19:15:06.285Z,-0.71
2022-11-04T19:20:12.456Z,-1.01
2022-11-04T19:25:15.565Z,-0.70
2022-11-04T19:30:19.416Z,-0.71
2022-11-04T19:35:22.324Z,-0.72
2022-11-04T19:40:25.009Z,-0.63
2022-11-04T19:45:27.650Z,-0.56
2022-11-04T19:50:30.361Z,-0.67
2022-11-04T19:55:33.146Z,-0.72
2022-11-04T20:00:36.260Z,-0.49
2022-11-04T20:05:40.986Z,-0.30
2022-11-04T20:10:43.991Z,-0.35
2022-11-04T20:15:46.630Z,-0.30
2022-11-04T20:20:49.328Z,-0.16
2022-11-04T20:25:52.736Z,-0.10
2022-11-04T20:30:55.590Z,-0.27
2022-11-04T20:35:58.136Z,-0.14
2022-11-04T20:41:09.575Z,-0.30
2022-11-04T20:46:15.588Z,-0.13
2022-11-04T20:51:21.799Z,-0.14
2022-11-04T20:56:25.539Z,-0.14
2022-11-04T21:01:31.501Z,-0.27
2022-11-04T21:06:37.774Z,-0.15
2022-11-04T21:11:40.851Z,-0.17
2022-11-04T21:16:44.165Z,-0.03
2022-11-04T21:21:47.184Z,-0.06
2022-11-04T21:26:50.453Z,-0.09
2022-11-04T21:31:53.686Z,-0.31
2022-11-04T21:36:56.256Z,-0.25
2022-11-04T21:41:59.346Z,-0.39
2022-11-04T21:47:01.988Z,-0.28
2022-11-04T21:52:05.837Z,-0.37
2022-11-04T21:57:08.385Z,-0.54
2022-11-04T22:02:11.570Z,-0.74
2022-11-04T22:07:14.233Z,-0.56
2022-11-04T22:12:16.902Z,-0.82
2022-11-04T22:17:19.633Z,-0.92
2022-11-04T22:22:22.198Z,-0.70
2022-11-04T22:27:24.734Z,-0.58
2022-11-04T22:32:28.996Z,-0.83
2022-11-04T22:37:31.553Z,-0.61
2022-11-04T22:42:34.158Z,-0.73
2022-11-04T22:47:36.823Z,-0.47
2022-11-04T22:52:39.432Z,-0.46
2022-11-04T22:57:42.054Z,-0.55
2022-11-04T23:02:46.181Z,-0.22
2022-11-04T23:07:48.814Z,-0.25
2022-11-04T23:13:10.058Z,-0.34
2022-11-04T23:18:31.704Z,-0.41
2022-11-04T23:23:52.656Z,-0.46
2022-11-04T23:29:13.907Z,-0.47
2022-11-04T23:34:35.297Z,-0.61
2022-11-04T23:39:38.919Z,-0.49
2022-11-04T23:45:01.450Z,-0.51
2022-11-04T23:50:23.319Z,-0.61
2022-11-04T23:55:44.622Z,-0.88
